createdAt,value
2024-03-02T00:00:33.611Z,9.45
2024-03-02T00:03:04.067Z,9.49
2024-03-02T00:05:34.144Z,9.47
2024-03-02T00:08:07.879Z,9.46
2024-03-02T00:10:49.230Z,9.43
2024-03-02T00:13:24.124Z,9.42
2024-03-02T00:15:59.990Z,9.41
2024-03-02T00:18:34.283Z,9.43
2024-03-02T00:21:04.718Z,9.42
2024-03-02T00:23:36.361Z,9.41
2024-03-02T00:26:07.750Z,9.42
2024-03-02T00:28:40.213Z,9.42
2024-03-02T00:31:15.388Z,9.40
2024-03-02T00:33:47.042Z,9.41
2024-03-02T00:36:20.968Z,9.38
2024-03-02T00:38:55.021Z,9.41
2024-03-02T00:41:27.145Z,9.41
2024-03-02T00:44:05.079Z,9.43
2024-03-02T00:46:42.274Z,9.47
2024-03-02T00:49:21.620Z,9.48
2024-03-02T00:51:55.994Z,9.51
2024-03-02T00:54:30.243Z,9.50
2024-03-02T00:57:03.815Z,9.51
2024-03-02T00:59:33.891Z,9.57
2024-03-02T01:02:06.622Z,9.57
2024-03-02T01:04:36.634Z,9.56
2024-03-02T01:07:06.494Z,9.61
2024-03-02T01:09:36.671Z,9.64
2024-03-02T01:12:07.188Z,9.67
2024-03-02T01:14:37.127Z,9.67
2024-03-02T01:17:10.059Z,9.72
2024-03-02T01:19:42.267Z,9.73
2024-03-02T01:22:27.416Z,9.76
2024-03-02T01:24:57.869Z,9.78
2024-03-02T01:27:31.308Z,9.75
2024-03-02T01:30:01.505Z,9.81
2024-03-02T01:32:34.106Z,9.81
2024-03-02T01:35:09.177Z,9.78
2024-03-02T01:37:39.016Z,9.78
2024-03-02T01:40:10.635Z,9.80
2024-03-02T01:42:41.058Z,9.81
2024-03-02T01:45:14.648Z,9.80
2024-03-02T01:47:47.482Z,9.82
2024-03-02T01:50:24.776Z,9.84
2024-03-02T01:52:55.165Z,9.85
2024-03-02T01:55:32.124Z,9.83
2024-03-02T01:58:02.500Z,9.83
2024-03-02T02:00:35.850Z,9.83
2024-03-02T02:03:08.924Z,9.81
2024-03-02T02:05:47.286Z,9.82
2024-03-02T02:08:17.780Z,9.81
2024-03-02T02:10:48.076Z,9.79
2024-03-02T02:13:18.347Z,9.81
2024-03-02T02:15:51.740Z,9.81
2024-03-02T02:18:24.604Z,9.83
2024-03-02T02:21:01.051Z,9.83
2024-03-02T02:23:33.672Z,9.87
2024-03-02T02:26:06.320Z,9.88
2024-03-02T02:28:38.276Z,9.90
2024-03-02T02:31:17.178Z,9.92
2024-03-02T02:33:48.454Z,9.93
2024-03-02T02:36:18.402Z,9.97
2024-03-02T02:38:54.697Z,10.00
2024-03-02T02:41:28.057Z,10.03
2024-03-02T02:43:57.992Z,10.05
2024-03-02T02:46:28.092Z,10.05
2024-03-02T02:48:58.064Z,10.05
2024-03-02T02:51:28.840Z,10.06
2024-03-02T02:54:01.290Z,10.09
2024-03-02T02:56:31.289Z,10.08
2024-03-02T02:59:04.621Z,10.08
2024-03-02T03:01:35.958Z,10.08
2024-03-02T03:04:06.336Z,10.09
2024-03-02T03:06:40.353Z,10.09
2024-03-02T03:09:15.410Z,10.10
2024-03-02T03:11:45.485Z,10.11
2024-03-02T03:14:15.435Z,10.12
2024-03-02T03:16:47.422Z,10.13
2024-03-02T03:19:17.337Z,10.13
2024-03-02T03:21:50.478Z,10.16
2024-03-02T03:24:23.090Z,10.18
2024-03-02T03:26:53.109Z,10.23
2024-03-02T03:29:22.983Z,10.25
2024-03-02T03:31:53.312Z,10.25
2024-03-02T03:34:23.158Z,10.25
2024-03-02T03:36:56.141Z,10.26
2024-03-02T03:39:30.486Z,10.25
2024-03-02T03:42:00.396Z,10.25
2024-03-02T03:44:30.344Z,10.23
2024-03-02T03:47:03.444Z,10.24
2024-03-02T03:49:35.202Z,10.21
2024-03-02T03:52:08.650Z,10.20
2024-03-02T03:54:44.477Z,10.18
2024-03-02T03:57:14.591Z,10.17
2024-03-02T03:59:44.484Z,10.17
2024-03-02T04:02:14.305Z,10.13
2024-03-02T04:04:46.644Z,10.14
2024-03-02T04:07:17.096Z,10.14
2024-03-02T04:09:49.650Z,10.13
2024-03-02T04:12:23.551Z,10.14
2024-03-02T04:15:03.264Z,10.12
2024-03-02T04:17:38.436Z,10.08
2024-03-02T04:20:16.424Z,10.06
2024-03-02T04:22:49.362Z,10.01
2024-03-02T04:25:26.624Z,9.97
2024-03-02T04:28:00.595Z,9.98
2024-03-02T04:30:33.236Z,9.97
2024-03-02T04:33:03.850Z,9.96
2024-03-02T04:35:33.828Z,9.93
2024-03-02T04:38:14.794Z,9.88
2024-03-02T04:40:47.326Z,9.85
2024-03-02T04:43:18.273Z,9.84
2024-03-02T04:45:48.321Z,9.84
2024-03-02T04:48:24.396Z,9.85
2024-03-02T04:50:54.489Z,9.85
2024-03-02T04:53:24.786Z,9.85
2024-03-02T04:56:24.825Z,9.85
2024-03-02T04:58:55.100Z,9.84
2024-03-02T05:01:25.117Z,9.81
2024-03-02T05:03:55.137Z,9.77
2024-03-02T05:06:25.167Z,9.75
2024-03-02T05:08:54.957Z,9.70
2024-03-02T05:11:51.765Z,9.61
2024-03-02T05:14:21.692Z,9.50
2024-03-02T05:16:51.704Z,9.47
2024-03-02T05:19:21.881Z,9.43
2024-03-02T05:21:53.184Z,9.42
2024-03-02T05:24:23.469Z,9.39
2024-03-02T05:27:02.882Z,9.30
2024-03-02T05:29:38.381Z,9.24
2024-03-02T05:32:08.785Z,9.19
2024-03-02T05:34:47.973Z,9.13
2024-03-02T05:37:18.241Z,9.14
2024-03-02T05:39:48.563Z,9.16
2024-03-02T05:42:21.341Z,9.14
2024-03-02T05:44:54.578Z,9.14
2024-03-02T05:47:24.798Z,9.10
2024-03-02T05:49:55.699Z,9.07
2024-03-02T05:52:33.321Z,9.04
2024-03-02T05:55:03.629Z,9.00
2024-03-02T05:57:48.974Z,8.98
2024-03-02T06:00:23.531Z,8.99
2024-03-02T06:02:54.044Z,8.95
2024-03-02T06:05:30.362Z,8.95
2024-03-02T06:08:00.577Z,8.92
2024-03-02T06:10:30.532Z,8.90
2024-03-02T06:13:06.298Z,8.86
2024-03-02T06:15:39.032Z,8.83
2024-03-02T06:18:14.134Z,8.87
2024-03-02T06:20:46.810Z,8.88
2024-03-02T06:23:17.254Z,8.92
2024-03-02T06:25:47.255Z,8.92
2024-03-02T06:28:21.692Z,8.86
2024-03-02T06:30:51.562Z,8.85
2024-03-02T06:33:21.612Z,8.85
2024-03-02T06:36:09.819Z,8.76
2024-03-02T06:38:43.313Z,8.78
2024-03-02T06:41:13.719Z,8.74
2024-03-02T06:43:46.210Z,8.72
2024-03-02T06:46:16.436Z,8.73
2024-03-02T06:48:46.393Z,8.73
2024-03-02T06:51:17.256Z,8.72
2024-03-02T06:53:47.644Z,8.74
2024-03-02T06:56:17.500Z,8.72
2024-03-02T06:58:49.935Z,8.71
2024-03-02T07:01:23.819Z,8.75
2024-03-02T07:03:55.052Z,8.82
2024-03-02T07:06:24.976Z,8.92
2024-03-02T07:08:54.876Z,8.98
2024-03-02T07:11:24.796Z,9.01
2024-03-02T07:13:57.447Z,9.05
2024-03-02T07:16:29.385Z,9.06
2024-03-02T07:19:00.389Z,9.09
2024-03-02T07:21:30.359Z,9.12
2024-03-02T07:24:00.657Z,9.14
2024-03-02T07:29:06.984Z,9.14
2024-03-02T07:31:36.864Z,9.16
2024-03-02T07:34:07.018Z,9.19
2024-03-02T07:36:38.051Z,9.24
2024-03-02T07:39:08.831Z,9.27
2024-03-02T07:41:38.775Z,9.30
2024-03-02T07:44:12.583Z,9.34
2024-03-02T07:46:42.513Z,9.42
2024-03-02T07:49:12.650Z,9.53
2024-03-02T07:51:42.571Z,9.74
2024-03-02T07:54:12.438Z,9.94
2024-03-02T07:56:42.440Z,10.18
2024-03-02T07:59:14.958Z,10.43
2024-03-02T08:01:44.858Z,10.72
2024-03-02T08:04:15.522Z,10.86
2024-03-02T08:06:45.389Z,10.85
2024-03-02T08:09:15.268Z,11.01
2024-03-02T08:11:45.177Z,11.01
2024-03-02T08:14:17.730Z,11.05
2024-03-02T08:16:47.645Z,11.27
2024-03-02T08:19:17.617Z,11.31
2024-03-02T08:21:48.215Z,11.54
2024-03-02T08:24:18.206Z,11.77
2024-03-02T08:26:48.202Z,11.90
2024-03-02T08:29:20.809Z,11.99
2024-03-02T08:31:50.791Z,11.94
2024-03-02T08:34:20.842Z,11.81
2024-03-02T08:36:50.977Z,11.70
2024-03-02T08:39:22.031Z,11.70
2024-03-02T08:41:52.751Z,11.75
2024-03-02T08:44:25.993Z,11.77
2024-03-02T08:46:55.820Z,11.81
2024-03-02T08:49:25.709Z,11.85
2024-03-02T08:51:56.567Z,11.89
2024-03-02T08:54:26.785Z,11.91
2024-03-02T08:56:56.940Z,11.93
2024-03-02T08:59:29.480Z,11.91
2024-03-02T09:01:59.379Z,11.94
2024-03-02T09:04:31.650Z,11.95
2024-03-02T09:07:03.776Z,11.98
2024-03-02T09:09:33.898Z,12.01
2024-03-02T09:12:03.819Z,12.00
2024-03-02T09:14:36.498Z,12.01
2024-03-02T09:17:06.811Z,12.02
2024-03-02T09:19:36.682Z,12.04
2024-03-02T09:22:07.133Z,12.10
2024-03-02T09:24:37.196Z,12.10
2024-03-02T09:27:07.593Z,12.18
2024-03-02T09:29:42.648Z,12.15
2024-03-02T09:32:16.887Z,12.20
2024-03-02T09:34:49.500Z,12.27
2024-03-02T09:37:20.582Z,12.38
2024-03-02T09:39:50.473Z,12.44
2024-03-02T09:42:21.556Z,12.56
2024-03-02T09:44:56.079Z,12.64
2024-03-02T09:47:25.988Z,12.71
2024-03-02T09:49:56.910Z,12.74
2024-03-02T09:52:26.908Z,12.82
2024-03-02T09:54:56.846Z,12.87
2024-03-02T09:57:26.755Z,12.93
2024-03-02T09:59:59.201Z,13.04
2024-03-02T10:02:29.081Z,13.23
2024-03-02T10:04:58.974Z,13.29
2024-03-02T10:07:28.796Z,13.31
2024-03-02T10:09:58.732Z,13.37
2024-03-02T10:12:29.134Z,13.49
2024-03-02T10:15:08.958Z,13.69
2024-03-02T10:17:39.706Z,13.86
2024-03-02T10:20:30.340Z,13.98
2024-03-02T10:23:13.459Z,14.19
2024-03-02T10:25:51.401Z,14.25
2024-03-02T10:28:29.598Z,14.27
2024-03-02T10:31:02.904Z,14.38
2024-03-02T10:33:32.982Z,14.44
2024-03-02T10:36:02.888Z,14.41
2024-03-02T10:38:32.708Z,14.34
2024-03-02T10:41:05.090Z,14.43
2024-03-02T10:43:35.524Z,14.44
2024-03-02T10:46:08.059Z,14.58
2024-03-02T10:48:40.931Z,14.72
2024-03-02T10:51:10.907Z,14.74
2024-03-02T10:53:40.739Z,14.79
2024-03-02T10:56:16.738Z,14.79
2024-03-02T10:58:46.821Z,14.84
2024-03-02T11:01:19.501Z,14.80
2024-03-02T11:03:49.617Z,14.84
2024-03-02T11:06:20.126Z,14.91
2024-03-02T11:08:53.152Z,14.95
2024-03-02T11:11:30.498Z,15.05
2024-03-02T11:14:09.547Z,15.08
2024-03-02T11:16:43.058Z,15.17
2024-03-02T11:19:17.808Z,15.28
2024-03-02T11:21:48.747Z,15.38
2024-03-02T11:24:42.381Z,15.31
2024-03-02T11:27:14.063Z,15.37
2024-03-02T11:29:47.758Z,15.43
2024-03-02T11:32:22.223Z,15.42
2024-03-02T11:34:53.801Z,15.41
2024-03-02T11:37:24.634Z,15.45
2024-03-02T11:39:55.833Z,15.48
2024-03-02T11:42:25.782Z,15.54
2024-03-02T11:44:56.131Z,15.57
2024-03-02T11:47:38.794Z,15.65
2024-03-02T11:50:10.942Z,15.74
2024-03-02T11:52:42.180Z,15.83
2024-03-02T11:55:13.956Z,15.86
2024-03-02T11:57:43.996Z,15.86
2024-03-02T12:00:21.864Z,15.89
2024-03-02T12:03:04.362Z,15.87
2024-03-02T12:05:34.909Z,15.77
2024-03-02T12:08:06.296Z,15.83
2024-03-02T12:10:36.774Z,15.91
2024-03-02T12:13:08.962Z,15.89
2024-03-02T12:15:42.343Z,15.99
2024-03-02T12:18:14.844Z,15.88
2024-03-02T12:20:44.625Z,15.85
2024-03-02T12:23:15.249Z,15.90
2024-03-02T12:25:46.286Z,15.92
2024-03-02T12:28:16.355Z,15.92
2024-03-02T12:30:46.496Z,15.88
2024-03-02T12:33:19.121Z,15.85
2024-03-02T12:35:48.957Z,15.91
2024-03-02T12:38:19.058Z,15.91
2024-03-02T12:40:48.927Z,15.86
2024-03-02T12:43:18.804Z,15.76
2024-03-02T12:45:48.810Z,15.73
2024-03-02T12:48:21.367Z,15.67
2024-03-02T12:50:51.669Z,15.68
2024-03-02T12:53:21.591Z,15.68
2024-03-02T12:55:53.062Z,15.63
2024-03-02T12:58:23.388Z,15.66
2024-03-02T13:00:53.511Z,15.67
2024-03-02T13:03:26.383Z,15.66
2024-03-02T13:05:56.357Z,15.62
2024-03-02T13:08:26.276Z,15.60
2024-03-02T13:10:56.301Z,15.52
2024-03-02T13:13:26.948Z,15.50
2024-03-02T13:15:59.834Z,15.48
2024-03-02T13:18:33.165Z,15.50
2024-03-02T13:21:03.086Z,15.47
2024-03-02T13:23:33.124Z,15.45
2024-03-02T13:26:03.374Z,15.47
2024-03-02T13:28:33.866Z,15.47
2024-03-02T13:31:03.907Z,15.44
2024-03-02T13:33:36.533Z,15.47
2024-03-02T13:36:07.292Z,15.43
2024-03-02T13:38:37.617Z,15.42
2024-03-02T13:41:07.797Z,15.48
2024-03-02T13:43:39.872Z,15.46
2024-03-02T13:46:11.238Z,15.49
2024-03-02T13:48:43.807Z,15.51
2024-03-02T13:51:13.609Z,15.55
2024-03-02T13:53:43.441Z,15.54
2024-03-02T13:56:13.446Z,15.57
2024-03-02T13:58:43.401Z,15.62
2024-03-02T14:01:13.569Z,15.61
2024-03-02T14:03:47.461Z,15.59
2024-03-02T14:06:17.778Z,15.59
2024-03-02T14:08:49.549Z,15.59
2024-03-02T14:11:19.444Z,15.57
2024-03-02T14:13:55.047Z,15.59
2024-03-02T14:16:27.241Z,15.53
2024-03-02T14:19:00.710Z,15.53
2024-03-02T14:21:30.612Z,15.54
2024-03-02T14:24:00.583Z,15.58
2024-03-02T14:26:30.505Z,15.60
2024-03-02T14:29:00.453Z,15.64
2024-03-02T14:31:30.420Z,15.61
2024-03-02T14:34:04.369Z,15.66
2024-03-02T14:36:35.317Z,15.68
2024-03-02T14:39:05.498Z,15.76
2024-03-02T14:41:35.308Z,15.78
2024-03-02T14:44:05.184Z,15.83
2024-03-02T14:46:35.286Z,15.89
2024-03-02T14:49:22.181Z,15.91
2024-03-02T14:51:52.067Z,15.90
2024-03-02T14:54:22.002Z,15.87
2024-03-02T14:56:53.032Z,15.78
2024-03-02T14:59:23.139Z,15.71
2024-03-02T15:01:53.112Z,15.78
2024-03-02T15:04:26.125Z,15.78
2024-03-02T15:06:56.006Z,15.83
2024-03-02T15:09:25.883Z,15.85
2024-03-02T15:11:55.794Z,15.89
2024-03-02T15:14:25.869Z,15.94
2024-03-02T15:16:57.536Z,16.00
2024-03-02T15:19:30.031Z,16.08
2024-03-02T15:21:59.962Z,16.14
2024-03-02T15:24:29.815Z,16.14
2024-03-02T15:26:59.701Z,16.16
2024-03-02T15:29:30.814Z,16.14
2024-03-02T15:32:00.867Z,16.07
2024-03-02T15:34:33.461Z,15.98
2024-03-02T15:37:05.384Z,15.88
2024-03-02T15:39:35.809Z,15.82
2024-03-02T15:42:06.377Z,15.76
2024-03-02T15:44:36.262Z,15.74
2024-03-02T15:47:06.486Z,15.72
2024-03-02T15:49:38.900Z,15.64
2024-03-02T15:52:08.847Z,15.63
2024-03-02T15:54:38.804Z,15.59
2024-03-02T15:57:08.796Z,15.62
2024-03-02T15:59:38.674Z,15.59
2024-03-02T16:02:09.058Z,15.59
2024-03-02T16:04:41.973Z,15.59
2024-03-02T16:07:12.600Z,15.56
2024-03-02T16:09:42.582Z,15.51
2024-03-02T16:12:12.590Z,15.50
2024-03-02T16:14:42.519Z,15.48
2024-03-02T16:17:12.450Z,15.43
2024-03-02T16:19:45.112Z,15.43
2024-03-02T16:22:15.161Z,15.38
2024-03-02T16:24:45.012Z,15.39
2024-03-02T16:27:14.906Z,15.31
2024-03-02T16:29:45.091Z,15.32
2024-03-02T16:32:15.012Z,15.32
2024-03-02T16:34:47.613Z,15.32
2024-03-02T16:37:17.527Z,15.30
2024-03-02T16:39:47.947Z,15.31
2024-03-02T16:42:21.229Z,15.29
2024-03-02T16:44:54.606Z,15.23
2024-03-02T16:47:24.881Z,15.25
2024-03-02T16:50:00.066Z,15.25
2024-03-02T16:52:31.784Z,15.25
2024-03-02T16:55:04.480Z,15.24
2024-03-02T16:57:35.236Z,15.21
2024-03-02T17:00:05.179Z,15.17
2024-03-02T17:02:35.147Z,15.14
2024-03-02T17:05:08.468Z,15.12
2024-03-02T17:07:38.436Z,15.12
2024-03-02T17:10:09.426Z,15.11
2024-03-02T17:12:41.418Z,15.11
2024-03-02T17:15:12.060Z,15.14
2024-03-02T17:17:42.077Z,15.13
2024-03-02T17:20:16.247Z,15.12
2024-03-02T17:22:46.122Z,15.13
2024-03-02T17:25:16.139Z,15.15
2024-03-02T17:27:46.296Z,15.17
2024-03-02T17:30:17.733Z,15.17
2024-03-02T17:32:47.545Z,15.13
2024-03-02T17:35:20.120Z,15.12
2024-03-02T17:37:52.277Z,15.12
2024-03-02T17:40:22.186Z,15.09
2024-03-02T17:42:52.065Z,15.08
2024-03-02T17:45:21.909Z,15.05
2024-03-02T17:47:51.792Z,15.06
2024-03-02T17:50:24.301Z,15.07
2024-03-02T17:52:56.299Z,15.08
2024-03-02T17:55:26.116Z,15.06
2024-03-02T17:57:56.019Z,15.04
2024-03-02T18:00:26.323Z,15.04
2024-03-02T18:02:56.228Z,15.06
2024-03-02T18:05:28.697Z,15.06
2024-03-02T18:07:58.580Z,15.03
2024-03-02T18:10:30.283Z,15.04
2024-03-02T18:13:00.299Z,15.00
2024-03-02T18:15:30.140Z,15.00
2024-03-02T18:18:01.157Z,14.99
2024-03-02T18:20:34.652Z,14.94
2024-03-02T18:23:04.614Z,14.88
2024-03-02T18:25:34.531Z,14.86
2024-03-02T18:28:04.443Z,14.79
2024-03-02T18:30:34.305Z,14.75
2024-03-02T18:33:05.321Z,14.74
2024-03-02T18:35:37.847Z,14.69
2024-03-02T18:38:08.231Z,14.65
2024-03-02T18:40:38.147Z,14.66
2024-03-02T18:43:08.346Z,14.66
2024-03-02T18:45:38.683Z,14.63
2024-03-02T18:48:09.476Z,14.61
2024-03-02T18:50:42.057Z,14.59
2024-03-02T18:53:13.799Z,14.56
2024-03-02T18:55:44.080Z,14.55
2024-03-02T18:58:13.996Z,14.56
2024-03-02T19:00:44.178Z,14.53
2024-03-02T19:03:14.383Z,14.52
2024-03-02T19:05:46.861Z,14.49
2024-03-02T19:08:19.740Z,14.45
2024-03-02T19:10:49.631Z,14.41
2024-03-02T19:13:19.580Z,14.42
2024-03-02T19:15:49.680Z,14.41
2024-03-02T19:18:19.700Z,14.40
2024-03-02T19:20:54.680Z,14.39
2024-03-02T19:23:29.124Z,14.37
2024-03-02T19:26:02.585Z,14.36
2024-03-02T19:28:32.476Z,14.35
2024-03-02T19:31:03.319Z,14.35
2024-03-02T19:33:33.217Z,14.32
2024-03-02T19:36:06.685Z,14.31
2024-03-02T19:38:37.982Z,14.30
2024-03-02T19:41:08.100Z,14.27
2024-03-02T19:43:37.944Z,14.27
2024-03-02T19:46:08.177Z,14.26
2024-03-02T19:48:38.086Z,14.21
2024-03-02T19:51:10.893Z,14.21
2024-03-02T19:53:40.731Z,14.19
2024-03-02T19:56:10.910Z,14.17
2024-03-02T19:58:40.820Z,14.17
2024-03-02T20:01:10.748Z,14.15
2024-03-02T20:03:40.685Z,14.11
2024-03-02T20:06:13.853Z,14.10
2024-03-02T20:08:43.767Z,14.08
2024-03-02T20:11:13.686Z,14.08
2024-03-02T20:13:43.567Z,14.07
2024-03-02T20:16:13.717Z,14.11
2024-03-02T20:18:43.631Z,14.12
2024-03-02T20:21:16.100Z,14.15
2024-03-02T20:23:46.372Z,14.14
2024-03-02T20:26:17.613Z,14.13
2024-03-02T20:28:48.812Z,14.15
2024-03-02T20:31:18.805Z,14.18
2024-03-02T20:33:48.721Z,14.16
2024-03-02T20:36:21.212Z,14.17
2024-03-02T20:38:51.150Z,14.20
2024-03-02T20:41:22.979Z,14.18
2024-03-02T20:43:52.824Z,14.20
2024-03-02T20:46:22.893Z,14.19
2024-03-02T20:48:52.966Z,14.18
2024-03-02T20:51:29.923Z,14.21
2024-03-02T20:54:02.347Z,14.22
2024-03-02T20:56:32.179Z,14.22
2024-03-02T20:59:02.065Z,14.24
2024-03-02T21:01:31.964Z,14.24
2024-03-02T21:04:01.833Z,14.21
2024-03-02T21:06:34.306Z,14.20
2024-03-02T21:09:04.580Z,14.15
2024-03-02T21:11:34.465Z,14.10
2024-03-02T21:14:04.403Z,14.07
2024-03-02T21:16:34.245Z,14.02
2024-03-02T21:19:04.121Z,13.98
2024-03-02T21:21:36.956Z,13.96
2024-03-02T21:24:06.978Z,13.91
2024-03-02T21:26:42.677Z,13.89
2024-03-02T21:29:12.936Z,13.86
2024-03-02T21:31:44.989Z,13.84
2024-03-02T21:34:15.010Z,13.78
2024-03-02T21:36:47.466Z,13.71
2024-03-02T21:39:17.522Z,13.67
2024-03-02T21:41:48.623Z,13.63
2024-03-02T21:44:18.451Z,13.60
2024-03-02T21:46:49.185Z,13.55
2024-03-02T21:49:19.272Z,13.53
2024-03-02T21:51:52.107Z,13.51
2024-03-02T21:54:21.948Z,13.46
2024-03-02T21:56:52.653Z,13.44
2024-03-02T21:59:22.513Z,13.43
2024-03-02T22:01:52.783Z,13.42
2024-03-02T22:04:22.939Z,13.39
2024-03-02T22:06:55.520Z,13.38
2024-03-02T22:09:25.446Z,13.38
2024-03-02T22:11:55.346Z,13.34
2024-03-02T22:14:25.215Z,13.36
2024-03-02T22:16:55.032Z,13.37
2024-03-02T22:19:24.933Z,13.34
2024-03-02T22:21:57.381Z,13.33
2024-03-02T22:24:27.602Z,13.31
2024-03-02T22:26:57.427Z,13.30
2024-03-02T22:29:27.302Z,13.26
2024-03-02T22:31:57.147Z,13.25
2024-03-02T22:34:27.016Z,13.25
2024-03-02T22:36:59.517Z,13.23
2024-03-02T22:39:29.567Z,13.21
2024-03-02T22:41:59.383Z,13.20
2024-03-02T22:44:29.240Z,13.19
2024-03-02T22:46:59.080Z,13.15
2024-03-02T22:49:28.922Z,13.14
2024-03-02T22:52:01.367Z,13.13
2024-03-02T22:54:31.256Z,13.10
2024-03-02T22:57:02.322Z,13.12
2024-03-02T22:59:32.729Z,13.10
2024-03-02T23:02:02.701Z,13.08
2024-03-02T23:04:32.581Z,13.06
2024-03-02T23:07:05.115Z,13.05
2024-03-02T23:09:35.915Z,13.02
2024-03-02T23:12:05.883Z,12.98
2024-03-02T23:14:35.761Z,12.95
2024-03-02T23:17:06.016Z,12.93
2024-03-02T23:19:35.913Z,12.89
2024-03-02T23:22:09.943Z,12.88
2024-03-02T23:24:39.866Z,12.85
2024-03-02T23:27:09.675Z,12.82
2024-03-02T23:29:41.441Z,12.80
2024-03-02T23:32:12.824Z,12.75
2024-03-02T23:34:42.685Z,12.67
2024-03-02T23:37:15.291Z,12.64
2024-03-02T23:40:19.273Z,12.64
2024-03-02T23:42:49.289Z,12.66
2024-03-02T23:45:19.312Z,12.67
2024-03-02T23:47:49.589Z,12.68
2024-03-02T23:50:19.499Z,12.68
2024-03-02T23:52:51.961Z,12.67
2024-03-02T23:55:22.933Z,12.67
2024-03-02T23:57:54.163Z,12.67
